• Join FlightAware (Why Join?)
  • Login
  • US Flag 
Gobble Gobble! 
08:51PM EST


 

Airport Tracker/Info


-or-


 

Live Flight TrackerFlight Track Log ✈ ASQ5745 ✈ 06-Jul-2013 ✈ KIAD - KALB

Flight Track Log - Related Links

Times and Time Zones

All times are in EDT time to prevent confusion due to time zone crossing. See the ASQ5745 flight status page for this flight to view local times or setup timezone preferences in your user account.

Time Position Orientation Groundspeed Altitude Reporting Facility
EDT Latitude Longitude Course Direction KTS MPH feet Rate Location/Type
08:16AM 38.9564 -77.5164 313° West 180 207 2,400  Level Washington Center
08:17AM 39.0033 -77.5817 313° West 243 280 4,200 2,520 Climbing Washington Center
08:18AM 39.0781 -77.5997 349° North 250 288 7,500 2,880 Climbing Washington Center
08:19AM 39.1592 -77.6100 354° North 262 302 10,000 1,800 Climbing Washington Center
08:20AM 39.2506 -77.6206 355° North 296 341 11,200 1,380 Climbing Washington Center
08:21AM 39.3528 -77.6153 North 334 384 12,900 1,680 Climbing Washington Center
08:22AM 39.4497 -77.5617 23° Northeast 354 407 14,700 1,440 Climbing Washington Center
08:24AM 39.6444 -77.4578 22° Northeast 392 451 17,300 1,140 Climbing New York Center
08:25AM 39.7678 -77.4533 North 397 457 18,100 900 Climbing New York Center
08:26AM 39.8822 -77.4208 12° North 413 475 19,200 1,020 Climbing New York Center
08:27AM 39.9919 -77.3608 23° Northeast 413 475 20,200 900 Climbing New York Center
08:28AM 40.1036 -77.3008 22° Northeast 420 483 21,100 840 Climbing New York Center
08:29AM 40.2028 -77.2447 23° Northeast 420 483 21,900 780 Climbing New York Center
08:30AM 40.3144 -77.1817 23° Northeast 430 495 22,700 720 Climbing New York Center
08:31AM 40.4303 -77.1217 22° Northeast 435 501 23,400 660 Climbing New York Center
08:32AM 40.5464 -77.0583 23° Northeast 435 501 24,100 600 Climbing New York Center
08:33AM 40.6644 -76.9928 23° Northeast 446 513 24,700 600 Climbing New York Center
08:34AM 40.7825 -76.9267 23° Northeast 446 513 25,300 540 Climbing New York Center
08:35AM 40.8986 -76.8603 23° Northeast 446 513 25,900 540 Climbing New York Center
08:36AM 41.0186 -76.7939 23° Northeast 446 513 26,400 480 Climbing New York Center
08:37AM 41.1472 -76.7228 23° Northeast 446 513 26,900 300 Climbing New York Center
08:38AM 41.2672 -76.6531 24° Northeast 451 519 27,000  Climbing New York Center
08:39AM 41.3853 -76.5861 23° Northeast 451 519 27,000  Level New York Center
08:40AM 41.5031 -76.5214 22° Northeast 451 519 27,000  Level New York Center
08:41AM 41.6186 -76.4536 24° Northeast 445 512 27,000 -360 Level New York Center
08:43AM 41.8569 -76.3094 24° Northeast 427 491 25,900 -600 Descending Boston Center
08:44AM 41.9258 -76.1825 54° Northeast 404 465 25,100 -840 Descending Boston Center
08:45AM 41.9764 -76.0400 64° Northeast 404 465 24,300 -840 Descending Boston Center
08:46AM 42.0289 -75.8922 64° Northeast 399 459 23,500 -900 Descending Boston Center
08:47AM 42.0767 -75.7578 64° Northeast 394 453 22,500 -1,080 Descending Boston Center
08:48AM 42.1242 -75.6258 64° Northeast 394 453 21,400 -1,080 Descending Boston Center
08:49AM 42.1697 -75.4936 65° Northeast 394 453 20,400 -1,020 Descending Boston Center
08:50AM 42.2169 -75.3586 65° Northeast 394 453 19,400 -1,020 Descending Boston Center
08:51AM 42.2642 -75.2261 64° Northeast 394 453 18,400 -840 Descending Boston Center
08:53AM 42.3133 -75.0850 65° Northeast 389 448 17,400 -1,200 Descending Boston Center
08:54AM 42.3625 -74.9353 66° East 373 429 15,300 -1,980 Descending Boston Center
08:55AM 42.4158 -74.7800 65° Northeast 355 409 13,200 -1,860 Descending Boston Center
08:56AM 42.4600 -74.6578 64° Northeast 351 404 11,600 -1,080 Descending Boston Center
08:57AM 42.4975 -74.5436 66° East 345 397 11,000 -720 Descending Boston Center
08:58AM 42.5247 -74.4261 73° East 325 374 10,200 -1,080 Descending Boston Center
08:59AM 42.5456 -74.3142 76° East 310 357 8,900 -1,560 Descending Boston Center
09:00AM 42.5661 -74.1992 76° East 305 351 7,100 -1,680 Descending Boston Center
09:01AM 42.5844 -74.0897 77° East 305 351 5,600 -1,500 Descending Boston Center
09:02AM 42.6022 -74.0000 75° East 285 328 4,200 -840 Descending Boston Center
09:03AM 42.6181 -73.9156 76° East 257 296 4,000 -720 Descending Boston Center
09:04AM 42.6294 -73.8369 79° East 229 264 2,800 -900 Descending Boston Center
09:05AM 42.6431 -73.7497 78° East 215 247 2,300 -900 Descending Boston Center
09:06AM 42.7214 -73.8078 331° Northwest 134 154 700 -1,140 Descending Boston Center